Time;durP1;ratioP1;P1;durP2;ratioP2;P2;SDS_P1;SDS_P2;PMS_P1;PMS_P2;Temp;Humidity;BMP_temperature;BMP_pressure;BME280_temperature;BME280_humidity;BME280_pressure;Samples;Min_cycle;Max_cycle;Signal;HPM_P1;HPM_P2
2022/12/29 07:02:59;;;;;;;50.47;16.77;;;-0.70;99.90;;;;;;6230562;22;20027;-80
2022/12/29 07:05:27;;;;;;;55.35;19.83;;;-0.90;99.90;;;;;;6206643;23;20035;-79
2022/12/29 07:07:58;;;;;;;47.28;16.58;;;-0.70;99.90;;;;;;6172878;23;20065;-80
2022/12/29 07:10:29;;;;;;;41.97;16.83;;;-0.50;99.90;;;;;;6162314;23;20021;-80
2022/12/29 07:12:56;;;;;;;44.53;17.77;;;-0.60;99.90;;;;;;6121496;23;20017;-80
2022/12/29 07:15:24;;;;;;;45.72;18.08;;;-0.60;99.90;;;;;;6111769;23;20030;-80
2022/12/29 07:17:52;;;;;;;45.40;18.85;;;-0.90;99.90;;;;;;6156167;23;20037;-80
2022/12/29 07:20:23;;;;;;;38.90;18.15;;;-0.60;99.90;;;;;;6115454;23;20017;-80
2022/12/29 07:22:53;;;;;;;40.33;16.60;;;-0.70;99.90;;;;;;6111407;23;20052;-80
2022/12/29 07:25:21;;;;;;;42.00;16.77;;;-0.50;99.90;;;;;;6140445;23;20029;-80
2022/12/29 07:27:49;;;;;;;39.10;17.25;;;-0.50;99.90;;;;;;6113705;23;20651;-80
2022/12/29 07:30:19;;;;;;;42.95;16.65;;;-0.50;99.90;;;;;;6109650;23;20022;-80
2022/12/29 07:32:46;;;;;;;44.35;18.48;;;-0.60;99.90;;;;;;6175727;23;20025;-80
2022/12/29 07:41:19;;;;;;;45.13;18.08;;;-0.20;99.90;;;;;;6250094;23;20023;-78
2022/12/29 07:43:48;;;;;;;42.63;17.88;;;-0.10;99.90;;;;;;6236078;23;20016;-80
2022/12/29 07:46:35;;;;;;;41.83;17.92;;;-0.30;99.90;;;;;;6258576;23;20103;-80
2022/12/29 07:49:23;;;;;;;44.22;18.00;;;-0.10;99.90;;;;;;6238225;23;20384;-79
2022/12/29 07:51:51;;;;;;;39.22;16.30;;;0.00;99.90;;;;;;6234008;23;20031;-79
2022/12/29 07:54:23;;;;;;;40.17;17.38;;;-0.10;99.90;;;;;;6228269;23;20067;-79
2022/12/29 07:56:51;;;;;;;41.40;17.80;;;0.10;99.90;;;;;;6246487;23;20024;-79
2022/12/29 07:59:18;;;;;;;43.30;17.38;;;0.20;99.90;;;;;;6223342;23;20030;-79
2022/12/29 08:01:46;;;;;;;42.42;16.50;;;0.10;99.90;;;;;;6226165;23;20026;-79
2022/12/29 08:04:16;;;;;;;43.03;17.58;;;0.20;99.90;;;;;;6225192;23;20020;-80
2022/12/29 08:06:45;;;;;;;42.38;17.55;;;0.20;99.90;;;;;;6226110;23;20639;-80
2022/12/29 08:09:16;;;;;;;44.10;17.33;;;0.00;99.90;;;;;;6248987;23;20464;-79
2022/12/29 08:11:50;;;;;;;39.53;16.40;;;0.00;99.90;;;;;;6227135;23;20035;-79
2022/12/29 08:14:39;;;;;;;38.78;15.73;;;-0.10;99.90;;;;;;6228681;23;20012;-79
2022/12/29 08:17:06;;;;;;;39.58;17.20;;;0.00;99.90;;;;;;6166809;23;20013;-79
2022/12/29 08:19:34;;;;;;;40.00;16.75;;;0.00;99.90;;;;;;6196137;23;20475;-79
2022/12/29 08:22:04;;;;;;;44.03;17.10;;;0.10;99.90;;;;;;6194773;23;20044;-79
2022/12/29 08:24:31;;;;;;;35.45;15.70;;;0.10;99.90;;;;;;6195422;23;20035;-79
2022/12/29 08:26:59;;;;;;;46.63;18.15;;;0.20;99.90;;;;;;6197655;23;20055;-79
2022/12/29 08:29:45;;;;;;;52.35;18.48;;;0.00;99.90;;;;;;6177538;23;20660;-79
2022/12/29 08:32:13;;;;;;;39.53;16.80;;;0.20;99.90;;;;;;6193133;23;20016;-79
2022/12/29 08:34:40;;;;;;;33.58;15.20;;;0.30;99.90;;;;;;6172310;23;20021;-79
2022/12/29 08:37:08;;;;;;;40.28;16.65;;;-0.10;99.90;;;;;;6217901;23;20498;-78
2022/12/29 08:39:35;;;;;;;38.45;16.38;;;-0.10;99.90;;;;;;6200577;23;20032;-79
2022/12/29 08:42:06;;;;;;;40.42;17.33;;;0.30;99.90;;;;;;6254061;23;20101;-79
2022/12/29 08:44:33;;;;;;;42.17;16.98;;;0.30;99.90;;;;;;6228858;23;20024;-79
2022/12/29 08:47:01;;;;;;;39.30;17.17;;;0.20;99.90;;;;;;6210723;22;20016;-79
2022/12/29 08:49:28;;;;;;;47.08;18.15;;;0.10;99.90;;;;;;6268249;22;20012;-80
2022/12/29 08:51:56;;;;;;;42.08;17.83;;;0.30;99.90;;;;;;6270696;22;20021;-79
2022/12/29 08:54:31;;;;;;;40.75;16.25;;;0.30;99.90;;;;;;6281536;22;20000;-79
2022/12/29 08:57:04;;;;;;;39.83;16.60;;;0.30;99.90;;;;;;6281348;22;20023;-79
2022/12/29 09:06:38;;;;;;;37.55;16.38;;;0.40;99.90;;;;;;6186339;23;20039;31
2022/12/29 09:20:10;;;;;;;38.10;17.02;;;0.60;99.90;;;;;;6186790;23;20056;31
2022/12/29 09:26:39;;;;;;;45.03;17.95;;;0.60;99.90;;;;;;6223514;22;20070;31
2022/12/29 09:29:18;;;;;;;39.47;15.90;;;0.70;99.90;;;;;;6157310;23;20048;-80
2022/12/29 09:31:46;;;;;;;49.63;20.17;;;0.80;99.90;;;;;;6096396;23;20018;-80
2022/12/29 09:34:15;;;;;;;43.42;18.10;;;0.70;99.90;;;;;;6095375;23;20509;-80
2022/12/29 09:36:42;;;;;;;47.65;19.23;;;-0.10;99.90;;;;;;6111313;23;20051;-80
2022/12/29 09:39:10;;;;;;;44.90;18.80;;;0.70;99.90;;;;;;6124426;23;20101;-80
2022/12/29 09:41:48;;;;;;;42.25;17.77;;;0.60;99.90;;;;;;6119099;23;20021;-80
2022/12/29 09:44:48;;;;;;;35.13;16.73;;;0.70;99.90;;;;;;6128952;23;20022;-80
2022/12/29 09:47:17;;;;;;;32.55;14.07;;;0.60;99.90;;;;;;6129795;23;20100;-79
2022/12/29 09:49:52;;;;;;;32.70;14.43;;;0.70;99.90;;;;;;6102105;23;20017;-79
2022/12/29 09:52:32;;;;;;;35.33;15.40;;;0.70;99.90;;;;;;6130278;23;20567;-79
2022/12/29 09:55:11;;;;;;;30.42;13.00;;;0.70;99.90;;;;;;6131668;23;20084;-79
2022/12/29 09:57:53;;;;;;;35.35;15.25;;;0.70;99.90;;;;;;6101630;23;20018;-79
2022/12/29 10:00:36;;;;;;;36.50;14.95;;;0.90;99.90;;;;;;6104182;23;20025;-79
2022/12/29 10:03:21;;;;;;;39.38;15.90;;;0.70;99.90;;;;;;6097334;23;20025;-79
2022/12/29 10:06:10;;;;;;;38.13;17.13;;;0.80;99.90;;;;;;6102601;23;20165;-79
2022/12/29 10:08:55;;;;;;;38.80;17.27;;;0.90;99.90;;;;;;6142058;23;20408;-79
2022/12/29 10:11:53;;;;;;;41.40;18.58;;;0.80;99.90;;;;;;6162223;23;20016;-79
2022/12/29 10:14:34;;;;;;;38.97;17.45;;;0.90;99.90;;;;;;6162009;23;20028;-79
2022/12/29 10:17:38;;;;;;;37.85;18.38;;;1.00;99.90;;;;;;6162774;23;20028;-79
2022/12/29 10:20:15;;;;;;;331.98;115.07;;;1.10;99.90;;;;;;6128142;23;20440;-79
2022/12/29 10:22:52;;;;;;;71.93;34.38;;;1.20;99.90;;;;;;6163504;23;20095;-79
2022/12/29 10:25:21;;;;;;;45.28;24.50;;;1.20;99.90;;;;;;6186677;23;20092;-79
2022/12/29 10:28:03;;;;;;;45.67;22.25;;;1.00;99.90;;;;;;6142422;23;20056;-79
2022/12/29 10:30:37;;;;;;;40.47;20.23;;;1.40;99.90;;;;;;6152029;23;20013;-79
2022/12/29 10:33:11;;;;;;;53.17;25.63;;;1.40;99.90;;;;;;6130758;23;20073;-79
2022/12/29 10:35:42;;;;;;;43.28;22.50;;;1.10;99.90;;;;;;6127714;23;20013;-78
2022/12/29 10:38:29;;;;;;;43.17;21.33;;;1.20;99.90;;;;;;6126154;23;20017;-78
2022/12/29 10:41:15;;;;;;;43.38;20.52;;;1.20;99.90;;;;;;6124756;23;20033;-78
2022/12/29 10:43:47;;;;;;;41.67;17.95;;;1.30;99.90;;;;;;6152898;23;20067;-78
2022/12/29 10:46:23;;;;;;;36.38;17.63;;;1.00;99.90;;;;;;6132345;23;20024;-78
2022/12/29 10:48:57;;;;;;;36.08;17.27;;;1.20;99.90;;;;;;6155182;23;20605;-78
2022/12/29 10:51:30;;;;;;;36.22;16.98;;;1.40;99.90;;;;;;6128821;23;20027;-78
2022/12/29 10:54:06;;;;;;;33.45;15.02;;;1.60;99.90;;;;;;6131054;23;20108;-78
2022/12/29 10:57:03;;;;;;;35.42;15.90;;;1.40;99.90;;;;;;6128608;23;20018;-78
2022/12/29 10:59:36;;;;;;;33.25;15.57;;;1.50;99.90;;;;;;6130045;23;20132;-78
2022/12/29 11:02:25;;;;;;;38.72;16.02;;;1.60;99.90;;;;;;6157358;23;20033;-78
2022/12/29 11:05:15;;;;;;;33.35;14.15;;;1.80;99.90;;;;;;6152762;23;20021;-78
2022/12/29 11:07:42;;;;;;;42.38;16.05;;;1.80;99.90;;;;;;6126355;23;20040;-79
2022/12/29 11:10:33;;;;;;;38.47;18.80;;;1.90;99.90;;;;;;6156936;23;20079;-78
2022/12/29 11:13:11;;;;;;;38.15;15.95;;;2.00;99.90;;;;;;6130808;23;20108;-78
2022/12/29 11:15:47;;;;;;;36.47;17.23;;;2.10;99.90;;;;;;6128932;23;20449;-78
2022/12/29 11:18:24;;;;;;;36.90;15.98;;;2.20;99.90;;;;;;6157691;23;20021;-78
2022/12/29 11:21:00;;;;;;;26.23;11.73;;;2.30;99.90;;;;;;6153514;23;20049;-78
2022/12/29 11:23:32;;;;;;;37.22;15.73;;;2.40;99.90;;;;;;6129010;23;20025;-78
2022/12/29 11:26:23;;;;;;;32.73;15.00;;;2.20;99.90;;;;;;6131053;23;20026;-78
2022/12/29 11:29:21;;;;;;;40.97;17.10;;;2.40;99.90;;;;;;6181489;23;20009;-78
2022/12/29 11:31:51;;;;;;;42.95;18.92;;;2.40;99.90;;;;;;6158308;23;20531;-78
2022/12/29 11:34:25;;;;;;;43.45;18.92;;;2.40;99.90;;;;;;6145864;23;20048;-78
2022/12/29 11:37:11;;;;;;;34.78;17.10;;;2.50;99.90;;;;;;6152091;23;20342;-78
2022/12/29 11:40:03;;;;;;;39.17;18.75;;;2.50;99.90;;;;;;6187395;23;20483;-77
2022/12/29 11:42:36;;;;;;;44.55;20.42;;;2.60;99.90;;;;;;6186704;23;20103;-77
2022/12/29 11:45:16;;;;;;;42.75;20.85;;;2.70;99.90;;;;;;6162513;23;20645;-77
2022/12/29 11:47:47;;;;;;;38.63;21.15;;;2.50;99.90;;;;;;6162150;23;20620;-77
2022/12/29 11:50:22;;;;;;;39.58;17.67;;;2.70;99.90;;;;;;6163728;23;20404;-77
2022/12/29 11:53:11;;;;;;;37.40;19.17;;;2.70;99.90;;;;;;6162396;23;20103;-77
2022/12/29 11:55:38;;;;;;;38.20;17.48;;;2.70;99.90;;;;;;6163477;23;20095;-76
2022/12/29 11:58:06;;;;;;;40.72;19.23;;;2.90;99.90;;;;;;6187514;23;20601;-77
2022/12/29 12:00:36;;;;;;;40.75;18.45;;;2.80;99.90;;;;;;6163031;23;20024;-76
2022/12/29 12:03:14;;;;;;;45.03;19.30;;;2.80;99.90;;;;;;6162347;23;20024;-76
2022/12/29 12:05:56;;;;;;;39.38;16.80;;;2.80;99.90;;;;;;6188198;23;20135;-77
2022/12/29 12:08:45;;;;;;;29.00;12.10;;;2.90;99.90;;;;;;6164715;23;20071;-76
2022/12/29 12:11:17;;;;;;;45.78;21.80;;;2.90;99.90;;;;;;6187982;23;20230;-77
2022/12/29 12:14:02;;;;;;;56.33;24.92;;;2.70;99.90;;;;;;6187541;23;20017;-76
2022/12/29 12:16:55;;;;;;;;;;;2.70;99.90;;;;;;6163933;23;20028;-76
2022/12/29 12:19:46;;;;;;;29.17;15.55;;;2.80;99.90;;;;;;6174673;23;19924;-77
2022/12/29 12:22:36;;;;;;;43.38;22.02;;;2.60;99.90;;;;;;6190071;23;20027;-78
2022/12/29 12:25:12;;;;;;;54.58;25.95;;;2.90;99.90;;;;;;6164454;23;20328;-77
2022/12/29 12:28:06;;;;;;;57.35;29.40;;;2.60;99.90;;;;;;6160707;23;20079;-77
2022/12/29 12:30:45;;;;;;;39.72;19.90;;;2.90;99.90;;;;;;6167742;23;20021;-77
2022/12/29 12:33:29;;;;;;;40.72;18.05;;;2.80;99.90;;;;;;6161931;23;20100;-78
2022/12/29 12:36:35;;;;;;;48.75;22.92;;;2.80;99.90;;;;;;6159835;23;20457;-77
2022/12/29 12:39:09;;;;;;;40.17;18.95;;;2.70;99.90;;;;;;6153526;23;20029;-77
2022/12/29 12:41:51;;;;;;;34.72;16.67;;;2.70;99.90;;;;;;6158678;23;20476;-77
2022/12/29 12:44:22;;;;;;;37.95;17.10;;;2.80;99.90;;;;;;6182954;23;20021;-77
2022/12/29 12:47:04;;;;;;;35.85;17.10;;;2.60;99.90;;;;;;6184643;23;20364;-77
2022/12/29 12:49:50;;;;;;;40.35;17.98;;;2.80;99.90;;;;;;6186161;23;20021;-77
2022/12/29 12:52:35;;;;;;;30.58;16.38;;;2.90;99.90;;;;;;6158687;23;20108;-77
2022/12/29 12:55:23;;;;;;;31.88;16.02;;;2.70;99.90;;;;;;6159862;23;20356;-78
2022/12/29 12:58:06;;;;;;;36.05;17.70;;;2.70;99.90;;;;;;6160721;23;20017;-78
2022/12/29 13:00:46;;;;;;;45.72;18.60;;;2.70;99.90;;;;;;6186269;23;20440;-78
2022/12/29 13:03:33;;;;;;;36.75;18.17;;;2.50;99.90;;;;;;6186546;23;20017;-78
2022/12/29 13:06:30;;;;;;;24.48;10.20;;;2.60;99.90;;;;;;6162462;23;20060;-77
2022/12/29 13:09:19;;;;;;;35.13;17.08;;;2.70;99.90;;;;;;6160409;23;20037;-76
2022/12/29 13:12:14;;;;;;;34.65;16.15;;;2.80;99.90;;;;;;6186314;23;20017;-76
2022/12/29 13:14:53;;;;;;;41.00;18.25;;;2.70;99.90;;;;;;6161228;23;20028;-76
2022/12/29 13:17:44;;;;;;;35.13;15.63;;;2.40;99.90;;;;;;6185317;23;20024;-77
2022/12/29 13:20:20;;;;;;;40.10;18.25;;;2.60;99.90;;;;;;6186601;23;20024;-77
2022/12/29 13:23:25;;;;;;;37.40;18.48;;;2.80;99.90;;;;;;6163220;23;20076;-77
2022/12/29 13:26:11;;;;;;;37.80;17.48;;;2.70;99.90;;;;;;6187983;23;20057;-77
2022/12/29 13:29:16;;;;;;;37.90;19.02;;;2.50;99.90;;;;;;6185993;23;20020;-78
2022/12/29 13:31:55;;;;;;;122.30;32.88;;;2.50;99.90;;;;;;6217657;23;20040;-79
2022/12/29 13:35:02;;;;;;;66.18;24.13;;;2.70;99.90;;;;;;6196272;23;20023;-78
2022/12/29 13:37:33;;;;;;;115.78;34.83;;;2.60;99.90;;;;;;6168319;23;20012;-78
2022/12/29 13:40:29;;;;;;;47.45;20.63;;;2.60;99.90;;;;;;6194347;23;20447;-78
2022/12/29 13:42:57;;;;;;;52.10;24.17;;;2.50;99.90;;;;;;6165358;23;20024;-78
2022/12/29 13:45:31;;;;;;;50.22;22.45;;;2.60;99.90;;;;;;6162827;23;20056;-78
2022/12/29 13:48:06;;;;;;;49.63;22.65;;;2.50;99.90;;;;;;6186405;23;20075;-78
2022/12/29 13:50:38;;;;;;;51.65;23.92;;;2.60;99.90;;;;;;6194593;23;20031;-78
2022/12/29 13:53:30;;;;;;;45.70;19.52;;;2.70;99.90;;;;;;6168662;23;20013;-78
2022/12/29 13:56:10;;;;;;;44.88;21.55;;;2.40;99.90;;;;;;6190801;23;20020;-78
2022/12/29 13:58:50;;;;;;;56.00;23.35;;;2.60;99.90;;;;;;6168375;23;20024;-78
2022/12/29 14:01:39;;;;;;;54.28;23.75;;;2.40;99.90;;;;;;6191733;23;20021;-78
2022/12/29 14:04:13;;;;;;;42.83;20.55;;;2.30;99.90;;;;;;6193324;23;20024;-78
2022/12/29 14:06:45;;;;;;;44.42;20.95;;;2.50;99.90;;;;;;6169321;23;20024;-78
2022/12/29 14:09:47;;;;;;;46.78;21.00;;;2.40;99.90;;;;;;6221107;23;20087;-78
2022/12/29 14:12:41;;;;;;;43.03;21.20;;;2.40;99.90;;;;;;6153874;23;20013;-78
2022/12/29 14:15:09;;;;;;;50.30;22.40;;;2.30;99.90;;;;;;6171537;23;20017;-78
2022/12/29 14:18:09;;;;;;;55.35;23.45;;;2.40;99.90;;;;;;6169781;23;20025;-78
2022/12/29 14:20:38;;;;;;;54.63;23.10;;;2.30;99.90;;;;;;6166438;23;20032;-78
2022/12/29 14:23:09;;;;;;;60.03;25.30;;;2.10;99.90;;;;;;6188656;23;20021;-78
2022/12/29 14:25:56;;;;;;;56.08;24.27;;;2.20;99.90;;;;;;6167410;23;20048;-78
2022/12/29 14:28:31;;;;;;;51.45;21.95;;;2.20;99.90;;;;;;6192938;23;20397;-78
2022/12/29 14:31:05;;;;;;;52.55;24.25;;;2.20;99.90;;;;;;6169747;23;20017;-77
2022/12/29 14:33:34;;;;;;;54.75;24.83;;;2.30;99.90;;;;;;6170519;23;20456;-77
2022/12/29 14:36:33;;;;;;;46.10;19.65;;;2.30;99.90;;;;;;6170057;23;20020;-77
2022/12/29 14:39:03;;;;;;;50.15;21.50;;;2.10;99.90;;;;;;6169458;23;20020;-77
2022/12/29 14:41:38;;;;;;;47.63;22.58;;;2.10;99.90;;;;;;6194953;23;20449;-77
2022/12/29 14:44:21;;;;;;;50.53;22.50;;;2.10;99.90;;;;;;6194780;23;20020;-77
2022/12/29 14:46:56;;;;;;;50.15;22.48;;;2.00;99.90;;;;;;6169082;23;20024;-77
2022/12/29 14:49:28;;;;;;;53.33;24.10;;;2.00;99.90;;;;;;6167821;23;20023;-78
2022/12/29 14:52:27;;;;;;;48.05;22.90;;;2.10;99.90;;;;;;6167621;23;20028;-78
2022/12/29 14:55:16;;;;;;;53.28;23.42;;;2.00;99.90;;;;;;6165962;23;20035;-78
2022/12/29 14:57:49;;;;;;;53.60;25.00;;;1.90;99.90;;;;;;6164422;23;20440;-78
2022/12/29 15:00:26;;;;;;;62.13;28.30;;;1.80;99.90;;;;;;6191941;23;20107;-78
2022/12/29 15:03:05;;;;;;;60.38;27.85;;;1.80;99.90;;;;;;6165197;23;20024;-78
2022/12/29 15:05:48;;;;;;;58.22;26.58;;;1.70;99.90;;;;;;6168907;23;20024;-78
2022/12/29 15:08:25;;;;;;;54.22;26.13;;;1.90;99.90;;;;;;6170061;23;20368;-78
2022/12/29 15:10:59;;;;;;;56.15;27.77;;;1.70;99.90;;;;;;6169184;23;20036;-78
2022/12/29 15:13:35;;;;;;;53.92;25.73;;;1.60;99.90;;;;;;6167933;23;20051;-78
2022/12/29 15:16:04;;;;;;;59.22;25.60;;;1.60;99.90;;;;;;6169414;23;20035;-79
2022/12/29 15:18:35;;;;;;;61.75;25.60;;;1.60;99.90;;;;;;6170695;23;20420;-79
2022/12/29 15:21:05;;;;;;;47.25;22.88;;;1.60;99.90;;;;;;6165319;23;20083;-79
2022/12/29 15:23:35;;;;;;;54.35;23.60;;;1.60;99.90;;;;;;6168074;23;20352;-80
2022/12/29 15:26:06;;;;;;;57.38;25.23;;;1.40;99.90;;;;;;6210121;23;20104;-80
2022/12/29 15:28:45;;;;;;;53.45;22.77;;;1.40;99.90;;;;;;6142743;23;20029;-80
2022/12/29 15:31:15;;;;;;;60.70;27.80;;;1.50;99.90;;;;;;6137956;23;20025;-79
2022/12/29 15:33:47;;;;;;;74.93;30.67;;;1.50;99.90;;;;;;6138843;23;20595;-80
2022/12/29 15:36:37;;;;;;;82.93;40.07;;;1.30;99.90;;;;;;6158877;23;20027;-80
2022/12/29 15:39:28;;;;;;;103.47;47.53;;;1.30;99.90;;;;;;6136387;23;20049;-80
2022/12/29 15:42:00;;;;;;;113.50;50.53;;;1.30;99.90;;;;;;6127574;23;20452;-80
2022/12/29 15:44:41;;;;;;;96.03;44.50;;;1.30;99.90;;;;;;6163302;23;20025;-80
2022/12/29 15:47:30;;;;;;;70.25;32.67;;;1.20;99.90;;;;;;6162144;23;20027;-80
2022/12/29 15:50:06;;;;;;;78.28;35.45;;;1.30;99.90;;;;;;6135595;23;20059;-80
2022/12/29 15:52:34;;;;;;;114.80;50.45;;;1.20;99.90;;;;;;6136004;23;20021;-80
2022/12/29 15:55:05;;;;;;;121.63;55.72;;;1.10;99.90;;;;;;6135263;23;20017;-80
2022/12/29 15:57:43;;;;;;;105.68;45.88;;;1.30;99.90;;;;;;6160642;23;20108;-80
2022/12/29 16:00:36;;;;;;;106.57;44.00;;;1.30;99.90;;;;;;6159902;23;20025;-80
2022/12/29 16:03:06;;;;;;;105.18;44.03;;;1.10;99.90;;;;;;6138522;23;20028;-80
2022/12/29 16:05:40;;;;;;;98.13;41.10;;;0.90;99.90;;;;;;6137941;23;20389;-80
2022/12/29 16:08:37;;;;;;;92.90;37.80;;;1.10;99.90;;;;;;6163725;23;20079;-79
2022/12/29 16:11:18;;;;;;;76.85;33.97;;;1.00;99.90;;;;;;6128411;23;20031;-79
2022/12/29 16:13:45;;;;;;;92.30;36.40;;;0.90;99.90;;;;;;6138259;23;20017;-79
2022/12/29 16:16:21;;;;;;;81.57;35.33;;;1.00;99.90;;;;;;6165307;23;20027;-80
2022/12/29 16:18:51;;;;;;;88.70;34.08;;;1.00;99.90;;;;;;6139736;23;20052;-80
2022/12/29 16:21:33;;;;;;;120.95;43.58;;;0.90;99.90;;;;;;6141674;23;20055;-80
2022/12/29 16:24:06;;;;;;;102.43;37.20;;;0.90;99.90;;;;;;6163410;23;20021;-80
2022/12/29 16:26:34;;;;;;;111.68;41.50;;;0.80;99.90;;;;;;6164368;23;20051;-80
2022/12/29 16:29:05;;;;;;;100.05;40.72;;;0.90;99.90;;;;;;6162056;23;20107;-80
2022/12/29 16:31:50;;;;;;;86.40;37.10;;;0.80;99.90;;;;;;6139386;23;20019;-78
2022/12/29 16:34:25;;;;;;;73.35;31.20;;;0.80;99.90;;;;;;6164548;23;20021;-80
2022/12/29 16:36:55;;;;;;;85.15;36.28;;;0.80;99.90;;;;;;6163891;23;20112;-79
2022/12/29 16:39:28;;;;;;;99.82;40.55;;;0.70;99.90;;;;;;6133606;23;20049;-78
2022/12/29 16:41:56;;;;;;;113.45;41.17;;;0.80;99.90;;;;;;6129240;23;20025;-79
2022/12/29 16:44:30;;;;;;;100.97;39.15;;;0.60;99.90;;;;;;6139358;23;20033;-78
2022/12/29 16:47:09;;;;;;;108.93;43.53;;;0.70;99.90;;;;;;6139163;23;20072;-78
2022/12/29 16:49:42;;;;;;;83.25;33.33;;;0.50;99.90;;;;;;6164766;23;20017;-79
2022/12/29 16:52:19;;;;;;;95.18;34.72;;;0.70;99.90;;;;;;6139998;23;20342;-79
2022/12/29 16:54:57;;;;;;;104.75;39.33;;;0.50;99.90;;;;;;6164574;23;20055;-78
2022/12/29 16:57:31;;;;;;;102.90;38.17;;;0.70;99.90;;;;;;6164440;23;20081;-79
2022/12/29 17:00:03;;;;;;;103.68;39.72;;;0.50;99.90;;;;;;6138244;23;20021;-79
2022/12/29 17:02:33;;;;;;;95.20;38.78;;;0.80;99.90;;;;;;6163156;23;20774;-79
2022/12/29 17:05:01;;;;;;;124.82;45.95;;;0.50;99.90;;;;;;6165468;23;20432;-79
2022/12/29 17:07:30;;;;;;;91.75;38.75;;;1.00;99.90;;;;;;6163769;23;20029;-79
2022/12/29 17:10:00;;;;;;;111.72;42.75;;;0.50;99.90;;;;;;6159884;23;20080;-79
2022/12/29 17:12:29;;;;;;;123.20;44.47;;;0.40;99.90;;;;;;6163828;23;20041;-79
2022/12/29 17:15:00;;;;;;;114.72;45.05;;;0.50;99.90;;;;;;6188398;23;20017;-79
2022/12/29 17:17:37;;;;;;;102.80;42.97;;;0.60;99.90;;;;;;6140656;23;20017;-79
2022/12/29 17:20:14;;;;;;;118.63;44.92;;;0.40;99.90;;;;;;6162656;23;20144;-79
2022/12/29 17:22:42;;;;;;;132.40;49.33;;;0.30;99.90;;;;;;6138739;23;20053;-79
2022/12/29 17:25:18;;;;;;;119.18;47.90;;;0.40;99.90;;;;;;6163404;23;20032;-79
2022/12/29 17:27:59;;;;;;;117.88;45.38;;;0.70;99.90;;;;;;6162762;23;20033;-79
2022/12/29 17:30:28;;;;;;;105.72;40.47;;;0.30;99.90;;;;;;6163519;23;20485;-79
2022/12/29 17:33:12;;;;;;;93.40;38.22;;;0.40;99.90;;;;;;6162676;23;20032;-79
2022/12/29 17:35:42;;;;;;;93.80;37.28;;;0.40;99.90;;;;;;6162287;23;20452;-79
2022/12/29 17:38:22;;;;;;;97.63;37.42;;;0.40;99.90;;;;;;6162740;23;20440;-79
2022/12/29 17:40:50;;;;;;;90.97;35.00;;;0.40;99.90;;;;;;6162349;23;20048;-79
2022/12/29 17:43:20;;;;;;;95.22;38.70;;;0.40;99.90;;;;;;6162016;23;20445;-79
2022/12/29 17:45:56;;;;;;;97.63;41.75;;;0.40;99.90;;;;;;6185735;23;20025;-79
2022/12/29 17:48:24;;;;;;;141.98;49.25;;;0.30;99.90;;;;;;6185904;23;20017;-79
2022/12/29 17:50:53;;;;;;;139.27;49.67;;;0.30;99.90;;;;;;6162328;23;20027;-79
2022/12/29 17:53:27;;;;;;;141.02;52.15;;;0.20;99.90;;;;;;6187604;23;20017;-79
2022/12/29 17:55:54;;;;;;;125.75;48.03;;;0.10;99.90;;;;;;6166169;23;20020;-79
2022/12/29 17:58:24;;;;;;;112.40;45.45;;;0.20;99.90;;;;;;6187534;23;20075;-79
2022/12/29 18:00:55;;;;;;;122.18;45.65;;;0.30;99.90;;;;;;6163096;23;20024;-79
2022/12/29 18:03:32;;;;;;;140.05;52.33;;;0.20;99.90;;;;;;6162103;23;20027;-79
2022/12/29 18:06:06;;;;;;;102.97;39.90;;;0.20;99.90;;;;;;6185476;23;20021;-79
2022/12/29 18:08:35;;;;;;;112.70;43.35;;;0.20;99.90;;;;;;6160349;23;20028;-79
2022/12/29 18:11:03;;;;;;;88.72;35.20;;;0.20;99.90;;;;;;6162162;23;20093;-79
2022/12/29 18:13:33;;;;;;;84.47;34.35;;;0.20;99.90;;;;;;6185436;23;20024;-79
2022/12/29 18:16:13;;;;;;;77.15;33.45;;;0.10;99.90;;;;;;6161308;23;20048;-79
2022/12/29 18:18:40;;;;;;;83.05;35.63;;;0.20;99.90;;;;;;6161547;23;20021;-79
2022/12/29 18:21:18;;;;;;;71.68;31.90;;;0.30;99.90;;;;;;6156659;23;20535;-79
2022/12/29 18:23:46;;;;;;;81.63;32.35;;;0.10;99.90;;;;;;6159887;23;20104;-79
2022/12/29 18:26:27;;;;;;;86.50;33.95;;;0.20;99.90;;;;;;6187848;23;20079;-79
2022/12/29 18:29:04;;;;;;;96.88;37.22;;;0.40;99.90;;;;;;6138671;23;20029;-79
2022/12/29 18:31:33;;;;;;;95.53;35.92;;;0.30;99.90;;;;;;6136855;23;20104;-79
2022/12/29 18:34:06;;;;;;;106.80;38.65;;;0.40;99.90;;;;;;6136063;23;20017;-79
2022/12/29 18:36:33;;;;;;;98.38;40.50;;;0.10;99.90;;;;;;6137106;23;20111;-79
2022/12/29 18:39:04;;;;;;;98.38;39.38;;;0.10;99.90;;;;;;6161108;23;20021;-79
2022/12/29 18:41:32;;;;;;;82.10;35.33;;;0.10;99.90;;;;;;6136976;23;20444;-79
2022/12/29 18:43:59;;;;;;;95.10;37.08;;;0.00;99.90;;;;;;6139476;23;20021;-79
2022/12/29 18:46:27;;;;;;;108.95;39.75;;;0.20;99.90;;;;;;6162064;23;20020;-79
2022/12/29 18:49:00;;;;;;;98.97;38.88;;;0.20;99.90;;;;;;6138203;23;20445;-79
2022/12/29 18:51:31;;;;;;;105.57;39.60;;;0.40;99.90;;;;;;6137721;23;20017;-79
2022/12/29 18:54:00;;;;;;;118.15;42.15;;;0.10;99.90;;;;;;6162667;23;20013;-79
2022/12/29 18:56:27;;;;;;;122.85;50.17;;;0.20;99.90;;;;;;6137611;23;20329;-79
2022/12/29 18:58:55;;;;;;;116.40;44.50;;;0.10;99.90;;;;;;6159891;23;20021;-79
2022/12/29 19:01:26;;;;;;;90.88;37.10;;;0.10;99.90;;;;;;6139704;23;20023;-79
2022/12/29 19:03:54;;;;;;;96.63;37.95;;;0.20;99.90;;;;;;6160514;23;20023;-79
2022/12/29 19:06:22;;;;;;;94.55;36.45;;;0.30;99.90;;;;;;6137518;23;20100;-79
2022/12/29 19:08:52;;;;;;;100.03;37.95;;;0.20;99.90;;;;;;6187634;23;20014;-79
2022/12/29 19:11:19;;;;;;;94.15;37.30;;;0.20;99.90;;;;;;6162750;23;20017;-79
2022/12/29 19:13:47;;;;;;;97.03;36.65;;;0.10;99.90;;;;;;6138217;23;20072;-79
2022/12/29 19:16:19;;;;;;;85.45;36.17;;;0.20;99.90;;;;;;6161778;23;20013;-79
2022/12/29 19:18:48;;;;;;;102.32;39.63;;;0.10;99.90;;;;;;6160684;23;20041;-79
2022/12/29 19:21:35;;;;;;;121.68;43.45;;;0.10;99.90;;;;;;6162433;23;20444;-79
2022/12/29 19:24:02;;;;;;;121.97;44.30;;;0.20;99.90;;;;;;6161014;23;20021;-79
2022/12/29 19:26:33;;;;;;;101.55;40.67;;;0.20;99.90;;;;;;6137242;23;20017;-79
2022/12/29 19:29:01;;;;;;;99.65;39.05;;;0.00;99.90;;;;;;6165194;23;20515;-79
2022/12/29 19:31:28;;;;;;;98.35;39.08;;;0.20;99.90;;;;;;6169424;23;20326;-79
2022/12/29 19:33:56;;;;;;;105.93;41.88;;;0.00;99.90;;;;;;6190753;23;20020;-79
2022/12/29 19:36:23;;;;;;;125.95;50.53;;;0.00;99.90;;;;;;6192421;23;20074;-79
2022/12/29 19:38:54;;;;;;;121.32;46.90;;;0.00;99.90;;;;;;6192911;23;20079;-79
2022/12/29 19:41:23;;;;;;;115.05;46.67;;;0.20;99.90;;;;;;6169562;23;20016;-79
2022/12/29 19:43:51;;;;;;;116.25;46.40;;;-0.10;99.90;;;;;;6170421;23;20017;-79
2022/12/29 19:46:19;;;;;;;128.57;51.05;;;0.00;99.90;;;;;;6167965;23;20016;-79
2022/12/29 19:48:49;;;;;;;123.65;48.65;;;-0.20;99.90;;;;;;6194480;23;20085;-79
2022/12/29 19:51:17;;;;;;;123.45;47.08;;;0.00;99.90;;;;;;6170591;23;20021;-79
2022/12/29 19:53:46;;;;;;;123.10;50.83;;;0.10;99.90;;;;;;6170074;23;20023;-79
2022/12/29 19:56:13;;;;;;;127.20;48.15;;;0.00;99.90;;;;;;6166021;23;20017;-79
2022/12/29 19:58:44;;;;;;;120.07;45.25;;;-0.20;99.90;;;;;;6171026;23;20043;-79
2022/12/29 20:01:20;;;;;;;116.00;44.67;;;0.00;99.90;;;;;;6195718;23;20048;-79
2022/12/29 20:03:48;;;;;;;125.85;45.67;;;0.10;99.90;;;;;;6194685;23;20107;-79
2022/12/29 20:06:17;;;;;;;119.47;46.88;;;0.10;99.90;;;;;;6167935;23;20032;-79
2022/12/29 20:08:47;;;;;;;153.45;54.65;;;-0.10;99.90;;;;;;6194591;23;20044;-79
2022/12/29 20:11:17;;;;;;;145.32;54.38;;;-0.10;99.90;;;;;;6167832;23;20330;-79
2022/12/29 20:13:45;;;;;;;142.93;55.92;;;-0.10;99.90;;;;;;6168009;23;20047;-79
2022/12/29 20:16:16;;;;;;;141.80;48.75;;;-0.20;99.90;;;;;;6168738;23;20070;-79
2022/12/29 20:18:44;;;;;;;125.78;49.20;;;-0.10;99.90;;;;;;6169756;23;20028;-79
2022/12/29 20:21:15;;;;;;;126.43;48.25;;;-0.10;99.90;;;;;;6193970;23;20020;-79
2022/12/29 20:23:44;;;;;;;117.20;45.75;;;0.10;99.90;;;;;;6194085;23;20055;-79
2022/12/29 20:26:17;;;;;;;113.15;45.25;;;-0.20;99.90;;;;;;6169840;23;20047;-79
2022/12/29 20:28:45;;;;;;;114.97;44.03;;;0.10;99.90;;;;;;6157609;23;20060;-79
2022/12/29 20:31:25;;;;;;;109.15;42.72;;;0.00;99.90;;;;;;6163361;23;20445;-79
2022/12/29 20:33:53;;;;;;;103.47;39.90;;;-0.10;99.90;;;;;;6158454;23;20104;-79
2022/12/29 20:36:23;;;;;;;116.00;42.28;;;-0.10;99.90;;;;;;6163604;23;20053;-79
2022/12/29 20:38:53;;;;;;;108.88;42.28;;;-0.10;99.90;;;;;;6137540;23;20021;-79
2022/12/29 20:41:21;;;;;;;108.18;39.00;;;-0.10;99.90;;;;;;6133877;23;20109;-79
2022/12/29 20:43:49;;;;;;;101.38;40.65;;;-0.40;99.90;;;;;;6176023;23;20025;-79
2022/12/29 20:46:16;;;;;;;104.90;41.55;;;-0.10;99.90;;;;;;6136888;23;20041;-79